createdAt,value
2022-10-03T00:01:36.714Z,73
2022-10-03T00:03:16.474Z,73
2022-10-03T00:04:56.264Z,73
2022-10-03T00:06:36.165Z,73
2022-10-03T00:08:15.919Z,73
2022-10-03T00:09:55.696Z,73
2022-10-03T00:11:35.321Z,73
2022-10-03T00:13:15.231Z,73
2022-10-03T00:14:54.993Z,73
2022-10-03T00:16:34.794Z,73
2022-10-03T00:18:14.540Z,73
2022-10-03T00:19:54.295Z,73
2022-10-03T00:21:33.930Z,73
2022-10-03T00:23:13.836Z,73
2022-10-03T00:24:53.615Z,73
2022-10-03T00:26:33.394Z,73
2022-10-03T00:29:52.906Z,73
2022-10-03T00:31:32.532Z,72
2022-10-03T00:33:12.441Z,73
2022-10-03T00:34:52.202Z,72
2022-10-03T00:36:31.980Z,72
2022-10-03T00:38:11.738Z,72
2022-10-03T00:39:51.361Z,72
2022-10-03T00:41:31.115Z,72
2022-10-03T00:43:11.038Z,72
2022-10-03T00:44:50.825Z,72
2022-10-03T00:46:30.571Z,72
2022-10-03T00:48:10.334Z,72
2022-10-03T00:49:49.963Z,72
2022-10-03T00:51:29.720Z,72
2022-10-03T00:53:09.660Z,72
2022-10-03T00:54:49.418Z,72
2022-10-03T00:56:29.192Z,72
2022-10-03T00:58:08.972Z,72
2022-10-03T00:59:48.744Z,71
2022-10-03T01:01:28.511Z,72
2022-10-03T01:03:08.255Z,72
2022-10-03T01:04:48.050Z,72
2022-10-03T01:06:27.785Z,72
2022-10-03T01:08:07.560Z,72
2022-10-03T01:09:47.350Z,72
2022-10-03T01:11:26.938Z,71
2022-10-03T01:13:06.847Z,72
2022-10-03T01:14:46.650Z,71
2022-10-03T01:16:26.375Z,72
2022-10-03T01:18:06.194Z,71
2022-10-03T01:19:45.925Z,71
2022-10-03T01:21:25.651Z,71
2022-10-03T01:23:05.405Z,71
2022-10-03T01:24:45.238Z,71
2022-10-03T01:26:24.997Z,71
2022-10-03T01:28:04.789Z,71
2022-10-03T01:29:44.534Z,71
2022-10-03T01:31:24.150Z,71
2022-10-03T01:33:04.062Z,71
2022-10-03T01:34:43.837Z,71
2022-10-03T01:36:23.607Z,71
2022-10-03T01:38:03.379Z,71
2022-10-03T01:39:43.156Z,71
2022-10-03T01:41:22.820Z,71
2022-10-03T01:43:02.695Z,71
2022-10-03T01:44:42.430Z,71
2022-10-03T01:46:22.154Z,71
2022-10-03T01:48:01.963Z,71
2022-10-03T01:49:41.761Z,71
2022-10-03T01:51:21.522Z,71
2022-10-03T01:54:41.047Z,71
2022-10-03T01:56:20.812Z,70
2022-10-03T01:58:00.500Z,70
2022-10-03T01:59:40.360Z,70
2022-10-03T02:01:20.116Z,70
2022-10-03T02:02:59.852Z,70
2022-10-03T02:04:39.631Z,70
2022-10-03T02:06:19.476Z,70
2022-10-03T02:07:59.123Z,70
2022-10-03T02:09:38.986Z,70
2022-10-03T02:11:18.736Z,70
2022-10-03T02:12:58.472Z,70
2022-10-03T02:14:38.248Z,70
2022-10-03T02:16:18.033Z,70
2022-10-03T02:17:57.767Z,70
2022-10-03T02:19:37.459Z,70
2022-10-03T02:21:17.317Z,70
2022-10-03T02:22:57.072Z,70
2022-10-03T02:24:36.839Z,70
2022-10-03T02:26:16.607Z,70
2022-10-03T02:27:56.241Z,70
2022-10-03T02:29:36.161Z,70
2022-10-03T02:31:15.799Z,70
2022-10-03T02:32:55.654Z,70
2022-10-03T02:34:35.401Z,70
2022-10-03T02:36:15.194Z,70
2022-10-03T02:37:54.946Z,70
2022-10-03T02:39:34.749Z,70
2022-10-03T02:41:14.477Z,69
2022-10-03T02:42:54.129Z,69
2022-10-03T02:44:34.012Z,69
2022-10-03T02:46:13.818Z,69
2022-10-03T02:47:53.508Z,69
2022-10-03T02:49:33.224Z,69
2022-10-03T02:51:12.975Z,69
2022-10-03T02:52:52.848Z,69
2022-10-03T02:54:32.592Z,69
2022-10-03T02:56:12.340Z,69
2022-10-03T02:57:52.092Z,69
2022-10-03T02:59:31.919Z,69
2022-10-03T03:01:11.670Z,69
2022-10-03T03:02:51.465Z,69
2022-10-03T03:04:31.115Z,69
2022-10-03T03:06:10.976Z,69
2022-10-03T03:07:50.767Z,69
2022-10-03T03:09:30.519Z,69
2022-10-03T03:11:10.186Z,69
2022-10-03T03:12:50.064Z,69
2022-10-03T03:14:29.848Z,68
2022-10-03T03:16:09.483Z,69
2022-10-03T03:17:49.253Z,68
2022-10-03T03:19:29.148Z,69
2022-10-03T03:21:08.817Z,68
2022-10-03T03:22:48.560Z,69
2022-10-03T03:24:28.325Z,68
2022-10-03T03:26:08.110Z,68
2022-10-03T03:27:47.877Z,68
2022-10-03T03:29:27.692Z,68
2022-10-03T03:31:07.396Z,68
2022-10-03T03:32:47.165Z,68
2022-10-03T03:34:27.036Z,68
2022-10-03T03:36:06.689Z,68
2022-10-03T03:37:46.543Z,68
2022-10-03T03:39:26.362Z,68
2022-10-03T03:41:06.004Z,68
2022-10-03T03:42:45.798Z,68
2022-10-03T03:44:25.590Z,68
2022-10-03T03:46:05.380Z,68
2022-10-03T03:47:45.199Z,68
2022-10-03T03:49:24.855Z,68
2022-10-03T03:51:04.773Z,67
2022-10-03T03:52:44.456Z,67
2022-10-03T03:54:24.260Z,68
2022-10-03T03:56:04.035Z,67
2022-10-03T03:57:43.736Z,67
2022-10-03T03:59:23.481Z,67
2022-10-03T04:01:03.206Z,67
2022-10-03T04:02:43.074Z,67
2022-10-03T04:04:22.723Z,67
2022-10-03T04:06:02.499Z,67
2022-10-03T04:07:42.269Z,67
2022-10-03T04:09:22.033Z,67
2022-10-03T04:11:01.811Z,67
2022-10-03T04:12:41.605Z,67
2022-10-03T04:14:21.477Z,67
2022-10-03T04:16:01.130Z,67
2022-10-03T04:17:40.868Z,67
2022-10-03T04:19:20.683Z,67
2022-10-03T04:21:00.402Z,67
2022-10-03T04:22:40.263Z,66
2022-10-03T04:24:20.012Z,67
2022-10-03T04:25:59.720Z,66
2022-10-03T04:27:39.597Z,66
2022-10-03T04:29:19.270Z,66
2022-10-03T04:30:59.015Z,66
2022-10-03T04:32:38.774Z,66
2022-10-03T04:34:18.543Z,66
2022-10-03T04:37:38.078Z,66
2022-10-03T04:39:17.885Z,66
2022-10-03T04:40:57.616Z,66
2022-10-03T04:42:37.392Z,66
2022-10-03T04:44:17.144Z,66
2022-10-03T04:45:56.950Z,66
2022-10-03T04:47:36.682Z,66
2022-10-03T04:49:16.448Z,66
2022-10-03T04:50:56.213Z,66
2022-10-03T04:52:35.995Z,66
2022-10-03T04:54:15.783Z,66
2022-10-03T04:55:55.531Z,66
2022-10-03T04:57:35.294Z,65
2022-10-03T04:59:15.041Z,65
2022-10-03T05:00:54.812Z,65
2022-10-03T05:04:14.348Z,65
2022-10-03T05:05:54.117Z,65
2022-10-03T05:07:33.879Z,65
2022-10-03T05:09:13.646Z,65
2022-10-03T05:10:53.466Z,65
2022-10-03T05:12:33.203Z,65
2022-10-03T05:14:12.956Z,65
2022-10-03T05:15:52.718Z,65
2022-10-03T05:17:32.481Z,65
2022-10-03T05:19:12.263Z,65
2022-10-03T05:20:52.046Z,65
2022-10-03T05:22:31.822Z,65
2022-10-03T05:24:11.563Z,65
2022-10-03T05:25:51.350Z,65
2022-10-03T05:27:31.118Z,65
2022-10-03T05:29:10.868Z,65
2022-10-03T05:30:50.621Z,65
2022-10-03T05:32:30.413Z,64
2022-10-03T05:34:10.185Z,58
2022-10-03T05:35:49.935Z,52
2022-10-03T05:37:29.697Z,46
2022-10-03T05:39:09.463Z,40
2022-10-03T05:40:49.251Z,34
2022-10-03T05:42:29.101Z,30
2022-10-03T05:44:08.838Z,30
2022-10-03T05:45:48.710Z,30
2022-10-03T05:47:28.302Z,30
2022-10-03T05:49:08.085Z,30
2022-10-03T05:50:47.843Z,30
2022-10-03T05:52:27.626Z,30
2022-10-03T05:54:07.387Z,30
2022-10-03T05:55:47.196Z,31
2022-10-03T05:57:26.962Z,31
2022-10-03T05:59:06.744Z,30
2022-10-03T06:00:46.470Z,31
2022-10-03T06:02:26.232Z,31
2022-10-03T06:04:06.031Z,32
2022-10-03T06:05:45.817Z,34
2022-10-03T06:07:25.637Z,35
2022-10-03T06:09:05.425Z,36
2022-10-03T06:10:45.111Z,37
2022-10-03T06:12:24.888Z,38
2022-10-03T06:14:04.729Z,40
2022-10-03T06:15:44.391Z,40
2022-10-03T06:17:24.159Z,41
2022-10-03T06:19:04.002Z,42
2022-10-03T06:20:43.700Z,43
2022-10-03T06:22:23.586Z,43
2022-10-03T06:24:03.257Z,44
2022-10-03T06:25:43.062Z,44
2022-10-03T06:27:22.832Z,45
2022-10-03T06:29:02.574Z,45
2022-10-03T06:30:42.340Z,45
2022-10-03T06:32:22.157Z,46
2022-10-03T06:34:01.899Z,46
2022-10-03T06:35:41.651Z,48
2022-10-03T06:37:21.536Z,49
2022-10-03T06:39:01.172Z,49
2022-10-03T06:40:40.972Z,50
2022-10-03T06:42:20.813Z,50
2022-10-03T06:44:00.614Z,50
2022-10-03T06:45:40.401Z,51
2022-10-03T06:47:20.039Z,51
2022-10-03T06:48:59.814Z,52
2022-10-03T06:50:39.639Z,52
2022-10-03T06:52:19.348Z,52
2022-10-03T06:53:59.117Z,54
2022-10-03T06:55:38.951Z,55
2022-10-03T06:57:18.660Z,60
2022-10-03T06:58:58.447Z,64
2022-10-03T07:00:38.195Z,64
2022-10-03T07:02:18.026Z,62
2022-10-03T07:03:57.749Z,61
2022-10-03T07:05:37.513Z,61
2022-10-03T07:07:17.287Z,61
2022-10-03T07:08:57.058Z,63
2022-10-03T07:10:36.882Z,63
2022-10-03T07:12:16.637Z,63
2022-10-03T07:13:56.455Z,65
2022-10-03T07:15:36.186Z,66
2022-10-03T07:17:15.968Z,67
2022-10-03T07:18:55.681Z,72
2022-10-03T07:20:35.517Z,76
2022-10-03T07:22:15.279Z,70
2022-10-03T07:23:54.990Z,67
2022-10-03T07:25:34.760Z,69
2022-10-03T07:27:14.518Z,69
2022-10-03T07:28:54.303Z,70
2022-10-03T07:30:34.065Z,73
2022-10-03T07:32:13.874Z,69
2022-10-03T07:33:53.615Z,69
2022-10-03T07:35:33.377Z,69
2022-10-03T07:37:13.145Z,68
2022-10-03T07:40:32.713Z,68
2022-10-03T07:42:12.450Z,70
2022-10-03T07:43:52.294Z,71
2022-10-03T07:45:32.039Z,75
2022-10-03T07:47:11.782Z,78
2022-10-03T07:48:51.568Z,79
2022-10-03T07:50:31.302Z,78
2022-10-03T07:52:11.069Z,84
2022-10-03T07:53:50.853Z,87
2022-10-03T07:57:10.375Z,90
2022-10-03T07:58:50.186Z,91
2022-10-03T08:00:29.934Z,90
2022-10-03T08:02:09.758Z,91
2022-10-03T08:03:49.498Z,90
2022-10-03T08:05:29.252Z,91
2022-10-03T08:07:09.018Z,91
2022-10-03T08:08:48.786Z,91
2022-10-03T08:10:28.562Z,91
2022-10-03T08:12:08.446Z,92
2022-10-03T08:13:48.081Z,91
2022-10-03T08:15:27.869Z,92
2022-10-03T08:17:07.618Z,92
2022-10-03T08:18:47.395Z,92
2022-10-03T08:20:27.162Z,92
2022-10-03T08:22:07.049Z,93
2022-10-03T08:23:46.769Z,93
2022-10-03T08:25:26.476Z,92
2022-10-03T08:27:06.256Z,93
2022-10-03T08:28:46.039Z,92
2022-10-03T08:30:25.801Z,93
2022-10-03T08:32:05.569Z,93
2022-10-03T08:33:45.337Z,92
2022-10-03T08:35:25.098Z,92
2022-10-03T08:37:04.874Z,93
2022-10-03T08:38:44.690Z,93
2022-10-03T08:40:24.413Z,93
2022-10-03T08:42:04.190Z,93
2022-10-03T08:43:43.985Z,93
2022-10-03T08:45:23.783Z,94
2022-10-03T08:47:03.549Z,94
2022-10-03T08:48:43.264Z,94
2022-10-03T08:50:23.044Z,94
2022-10-03T08:52:02.827Z,93
2022-10-03T08:53:42.581Z,94
2022-10-03T08:55:22.343Z,94
2022-10-03T08:57:02.123Z,94
2022-10-03T08:58:41.898Z,94
2022-10-03T09:00:21.652Z,94
2022-10-03T09:02:01.433Z,95
2022-10-03T09:03:41.211Z,95
2022-10-03T09:05:20.961Z,95
2022-10-03T09:07:00.757Z,94
2022-10-03T09:08:40.517Z,95
2022-10-03T09:10:20.287Z,95
2022-10-03T09:12:00.053Z,95
2022-10-03T09:13:39.827Z,95
2022-10-03T09:15:19.595Z,94
2022-10-03T09:16:59.420Z,95
2022-10-03T09:18:39.142Z,95
2022-10-03T09:20:18.910Z,95
2022-10-03T09:21:58.764Z,95
2022-10-03T09:23:38.441Z,96
2022-10-03T09:25:18.211Z,95
2022-10-03T09:26:58.028Z,96
2022-10-03T09:28:37.768Z,96
2022-10-03T09:30:17.529Z,96
2022-10-03T09:31:57.353Z,96
2022-10-03T09:33:37.089Z,96
2022-10-03T09:35:16.843Z,96
2022-10-03T09:36:56.610Z,95
2022-10-03T09:38:36.377Z,96
2022-10-03T09:40:16.154Z,96
2022-10-03T09:41:55.971Z,97
2022-10-03T09:43:35.693Z,96
2022-10-03T09:45:15.459Z,97
2022-10-03T09:46:55.236Z,98
2022-10-03T09:48:34.994Z,96
2022-10-03T09:50:14.821Z,97
2022-10-03T09:51:54.553Z,97
2022-10-03T09:53:34.329Z,98
2022-10-03T09:55:14.107Z,97
2022-10-03T09:56:53.863Z,96
2022-10-03T09:58:33.625Z,98
2022-10-03T10:00:13.394Z,97
2022-10-03T10:01:53.189Z,97
2022-10-03T10:03:32.992Z,98
2022-10-03T10:05:12.710Z,98
2022-10-03T10:06:52.481Z,98
2022-10-03T10:08:32.257Z,99
2022-10-03T10:10:12.023Z,98
2022-10-03T10:11:51.807Z,99
2022-10-03T10:13:31.560Z,99
2022-10-03T10:15:11.347Z,98
2022-10-03T10:16:51.115Z,99
2022-10-03T10:18:30.875Z,99
2022-10-03T10:20:10.660Z,99
2022-10-03T10:21:50.444Z,98
2022-10-03T10:23:30.196Z,99
2022-10-03T10:25:09.956Z,99
2022-10-03T10:26:49.727Z,99
2022-10-03T10:28:29.505Z,98
2022-10-03T10:30:09.268Z,99
2022-10-03T10:31:49.039Z,99
2022-10-03T10:33:28.790Z,98
2022-10-03T10:35:08.562Z,99
2022-10-03T10:36:48.336Z,99
2022-10-03T10:38:28.099Z,100
2022-10-03T10:40:07.887Z,99
2022-10-03T10:41:47.665Z,100
2022-10-03T10:43:27.437Z,100
2022-10-03T10:45:07.220Z,100
2022-10-03T10:46:46.968Z,100
2022-10-03T10:48:26.746Z,99
2022-10-03T10:50:06.498Z,100
2022-10-03T10:51:46.275Z,100
2022-10-03T10:53:26.090Z,100
2022-10-03T10:55:05.814Z,100
2022-10-03T10:56:45.587Z,100
2022-10-03T10:58:25.344Z,100
2022-10-03T11:00:05.122Z,100
2022-10-03T11:01:44.882Z,100
2022-10-03T11:03:24.671Z,100
2022-10-03T11:05:04.442Z,100
2022-10-03T11:06:44.204Z,100
2022-10-03T11:08:23.970Z,100
2022-10-03T11:10:03.738Z,100
2022-10-03T11:11:43.511Z,100
2022-10-03T11:13:23.283Z,100
2022-10-03T11:15:03.082Z,100
2022-10-03T11:16:42.829Z,100
2022-10-03T11:18:22.580Z,100
2022-10-03T11:20:02.366Z,100
2022-10-03T11:21:42.154Z,100
2022-10-03T11:23:21.924Z,100
2022-10-03T11:25:01.660Z,100
2022-10-03T11:26:41.436Z,100
2022-10-03T11:28:21.222Z,100
2022-10-03T11:30:01.017Z,100
2022-10-03T11:31:40.760Z,100
2022-10-03T11:33:20.531Z,100
2022-10-03T11:35:00.300Z,100
2022-10-03T11:36:40.067Z,100
2022-10-03T11:38:19.839Z,100
2022-10-03T11:39:59.593Z,100
2022-10-03T11:41:39.389Z,100
2022-10-03T11:43:19.144Z,100
2022-10-03T11:44:58.928Z,100
2022-10-03T11:46:38.692Z,100
2022-10-03T11:48:18.478Z,100
2022-10-03T11:49:58.230Z,100
2022-10-03T11:51:38.002Z,100
2022-10-03T11:53:17.790Z,100
2022-10-03T11:54:57.541Z,100
2022-10-03T11:56:37.310Z,100
2022-10-03T11:58:17.145Z,100
2022-10-03T11:59:56.855Z,100
2022-10-03T12:01:36.615Z,100
2022-10-03T12:03:16.410Z,100
2022-10-03T12:04:56.283Z,100
2022-10-03T12:06:35.929Z,100
2022-10-03T12:08:15.712Z,100
2022-10-03T12:09:55.510Z,100
2022-10-03T12:11:35.315Z,100
2022-10-03T12:13:15.018Z,100
2022-10-03T12:14:54.789Z,100
2022-10-03T12:16:34.561Z,100
2022-10-03T12:18:14.327Z,100
2022-10-03T12:19:54.087Z,100
2022-10-03T12:21:33.987Z,100
2022-10-03T12:23:13.635Z,100
2022-10-03T12:24:53.420Z,100
2022-10-03T12:26:33.171Z,100
2022-10-03T12:28:12.938Z,100
2022-10-03T12:29:52.716Z,100
2022-10-03T12:31:32.524Z,100
2022-10-03T12:33:12.299Z,100
2022-10-03T12:34:52.053Z,100
2022-10-03T12:36:31.844Z,100
2022-10-03T12:38:11.587Z,100
2022-10-03T12:39:51.434Z,100
2022-10-03T12:41:31.152Z,100
2022-10-03T12:43:10.884Z,100
2022-10-03T12:44:50.666Z,100
2022-10-03T12:46:30.440Z,100
2022-10-03T12:48:10.195Z,100
2022-10-03T12:49:49.983Z,100
2022-10-03T12:51:29.739Z,100
2022-10-03T12:53:09.506Z,100
2022-10-03T12:54:49.265Z,100
2022-10-03T12:56:29.040Z,100
2022-10-03T12:58:08.870Z,100
2022-10-03T12:59:48.618Z,100
2022-10-03T13:01:28.380Z,100
2022-10-03T13:03:08.122Z,100
2022-10-03T13:04:47.909Z,100
2022-10-03T13:06:27.684Z,100
2022-10-03T13:08:07.439Z,100
2022-10-03T13:09:47.202Z,100
2022-10-03T13:11:26.985Z,100
2022-10-03T13:13:06.753Z,100
2022-10-03T13:14:46.506Z,100
2022-10-03T13:16:26.291Z,100
2022-10-03T13:18:06.067Z,100
2022-10-03T13:19:45.825Z,100
2022-10-03T13:21:25.610Z,100
2022-10-03T13:23:05.370Z,100
2022-10-03T13:24:45.170Z,100
2022-10-03T13:26:24.937Z,100
2022-10-03T13:28:04.676Z,100
2022-10-03T13:29:44.444Z,100
2022-10-03T13:31:24.345Z,100
2022-10-03T13:33:03.987Z,100
2022-10-03T13:34:43.770Z,100
2022-10-03T13:36:23.594Z,100
2022-10-03T13:38:03.291Z,100
2022-10-03T13:39:43.087Z,100
2022-10-03T13:41:22.840Z,100
2022-10-03T13:43:02.613Z,100
2022-10-03T13:44:42.380Z,100
2022-10-03T13:46:22.173Z,100
2022-10-03T13:48:01.915Z,100
2022-10-03T13:49:41.689Z,100
2022-10-03T13:51:21.466Z,100
2022-10-03T13:53:01.263Z,100
2022-10-03T13:54:41.000Z,100
2022-10-03T13:56:20.786Z,100
2022-10-03T13:58:00.554Z,100
2022-10-03T13:59:40.314Z,100
2022-10-03T14:01:20.098Z,100
2022-10-03T14:02:59.859Z,100
2022-10-03T14:04:39.628Z,100
2022-10-03T14:06:19.437Z,100
2022-10-03T14:07:59.188Z,100
2022-10-03T14:09:38.986Z,100
2022-10-03T14:12:58.491Z,100
2022-10-03T14:14:38.261Z,100
2022-10-03T14:16:18.025Z,100
2022-10-03T14:17:57.785Z,100
2022-10-03T14:19:37.577Z,100
2022-10-03T14:21:17.324Z,100
2022-10-03T14:22:57.112Z,100
2022-10-03T14:24:36.896Z,100
2022-10-03T14:26:16.648Z,100
2022-10-03T14:27:56.411Z,100
2022-10-03T14:29:36.249Z,100
2022-10-03T14:31:15.987Z,100
2022-10-03T14:32:55.725Z,100
2022-10-03T14:34:35.651Z,100
2022-10-03T14:36:15.341Z,100
2022-10-03T14:37:55.049Z,100
2022-10-03T14:39:34.851Z,100
2022-10-03T14:41:14.638Z,100
2022-10-03T14:42:54.388Z,100
2022-10-03T14:44:34.158Z,100
2022-10-03T14:46:13.896Z,100
2022-10-03T14:47:53.683Z,100
2022-10-03T14:49:33.427Z,100
2022-10-03T14:51:13.201Z,100
2022-10-03T14:52:53.038Z,100
2022-10-03T14:54:32.746Z,100
2022-10-03T14:56:12.510Z,100
2022-10-03T14:57:52.286Z,100
2022-10-03T14:59:32.144Z,100
2022-10-03T15:01:11.957Z,100
2022-10-03T15:02:51.749Z,100
2022-10-03T15:04:31.367Z,100
2022-10-03T15:06:11.200Z,100
2022-10-03T15:07:50.905Z,100
2022-10-03T15:09:30.758Z,100
2022-10-03T15:11:10.480Z,100
2022-10-03T15:12:50.246Z,100
2022-10-03T15:14:30.124Z,100
2022-10-03T15:16:09.855Z,100
2022-10-03T15:17:49.622Z,100
2022-10-03T15:19:29.357Z,100
2022-10-03T15:21:09.157Z,100
2022-10-03T15:22:48.858Z,100
2022-10-03T15:24:28.609Z,100
2022-10-03T15:26:08.432Z,100
2022-10-03T15:27:48.182Z,100
2022-10-03T15:29:27.913Z,100
2022-10-03T15:31:07.731Z,100
2022-10-03T15:32:47.544Z,100
2022-10-03T15:34:27.258Z,100
2022-10-03T15:36:07.033Z,100
2022-10-03T15:37:46.769Z,100
2022-10-03T15:39:26.539Z,100
2022-10-03T15:41:06.305Z,100
2022-10-03T15:42:46.175Z,100
2022-10-03T15:44:25.859Z,100
2022-10-03T15:46:05.624Z,100
2022-10-03T15:47:45.403Z,100
2022-10-03T15:49:25.187Z,100
2022-10-03T15:51:04.941Z,100
2022-10-03T15:52:44.714Z,100
2022-10-03T15:54:24.471Z,100
2022-10-03T15:56:04.241Z,100
2022-10-03T15:57:44.019Z,100
2022-10-03T15:59:23.794Z,100
2022-10-03T16:01:03.544Z,100
2022-10-03T16:02:43.303Z,100
2022-10-03T16:04:23.067Z,100
2022-10-03T16:06:02.858Z,100
2022-10-03T16:07:42.621Z,100
2022-10-03T16:09:22.379Z,100
2022-10-03T16:11:02.170Z,100
2022-10-03T16:12:41.918Z,100
2022-10-03T16:14:21.688Z,100
2022-10-03T16:16:01.462Z,100
2022-10-03T16:17:41.210Z,100
2022-10-03T16:19:21.018Z,100
2022-10-03T16:21:00.795Z,100
2022-10-03T16:22:40.515Z,100
2022-10-03T16:24:20.283Z,100
2022-10-03T16:26:00.071Z,96
2022-10-03T16:27:39.852Z,91
2022-10-03T16:29:19.625Z,91
2022-10-03T16:32:39.144Z,90
2022-10-03T16:34:18.925Z,89
2022-10-03T16:35:58.653Z,89
2022-10-03T16:37:38.450Z,88
2022-10-03T16:39:18.197Z,88
2022-10-03T16:42:37.724Z,87
2022-10-03T16:44:17.492Z,87
2022-10-03T16:45:57.299Z,87
2022-10-03T16:47:37.063Z,86
2022-10-03T16:49:16.797Z,86
2022-10-03T16:50:56.570Z,85
2022-10-03T16:52:36.383Z,85
2022-10-03T16:54:16.097Z,85
2022-10-03T16:55:55.885Z,85
2022-10-03T16:57:35.658Z,85
2022-10-03T16:59:15.401Z,85
2022-10-03T17:00:55.169Z,84
2022-10-03T17:02:34.963Z,84
2022-10-03T17:04:14.695Z,84
2022-10-03T17:05:54.481Z,84
2022-10-03T17:07:34.245Z,84
2022-10-03T17:09:13.999Z,83
2022-10-03T17:10:53.814Z,83
2022-10-03T17:12:33.659Z,83
2022-10-03T17:14:13.307Z,83
2022-10-03T17:15:53.133Z,83
2022-10-03T17:17:32.838Z,83
2022-10-03T17:19:12.626Z,82
2022-10-03T17:20:52.419Z,82
2022-10-03T17:22:32.136Z,82
2022-10-03T17:24:11.930Z,82
2022-10-03T17:25:51.742Z,82
2022-10-03T17:27:31.455Z,82
2022-10-03T17:29:11.227Z,82
2022-10-03T17:32:30.770Z,81
2022-10-03T17:34:10.524Z,81
2022-10-03T17:35:50.288Z,81
2022-10-03T17:37:30.062Z,81
2022-10-03T17:39:09.813Z,81
2022-10-03T17:40:49.589Z,81
2022-10-03T17:42:29.389Z,80
2022-10-03T17:44:09.149Z,80
2022-10-03T17:45:48.930Z,80
2022-10-03T17:47:28.661Z,80
2022-10-03T17:49:08.429Z,80
2022-10-03T17:50:48.231Z,80
2022-10-03T17:52:27.963Z,80
2022-10-03T17:54:07.719Z,80
2022-10-03T17:55:47.490Z,80
2022-10-03T17:57:27.261Z,80
2022-10-03T17:59:07.032Z,80
2022-10-03T18:00:46.791Z,80
2022-10-03T18:02:26.553Z,80
2022-10-03T18:04:06.391Z,80
2022-10-03T18:05:46.103Z,80
2022-10-03T18:07:25.943Z,80
2022-10-03T18:09:05.624Z,80
2022-10-03T18:10:45.406Z,80
2022-10-03T18:12:25.275Z,79
2022-10-03T18:14:04.939Z,79
2022-10-03T18:15:44.702Z,79
2022-10-03T18:17:24.484Z,79
2022-10-03T18:19:04.248Z,79
2022-10-03T18:20:44.004Z,79
2022-10-03T18:22:23.834Z,79
2022-10-03T18:24:03.565Z,79
2022-10-03T18:25:43.305Z,79
2022-10-03T18:27:23.100Z,79
2022-10-03T18:29:02.847Z,79
2022-10-03T18:30:42.613Z,79
2022-10-03T18:32:22.382Z,79
2022-10-03T18:34:02.157Z,79
2022-10-03T18:35:41.918Z,79
2022-10-03T18:37:21.727Z,79
2022-10-03T18:39:01.442Z,79
2022-10-03T18:40:41.209Z,78
2022-10-03T18:42:21.000Z,79
2022-10-03T18:44:00.778Z,79
2022-10-03T18:45:40.509Z,79
2022-10-03T18:47:20.353Z,78
2022-10-03T18:49:00.067Z,78
2022-10-03T18:50:39.828Z,78
2022-10-03T18:52:19.622Z,78
2022-10-03T18:53:59.386Z,78
2022-10-03T18:55:39.198Z,78
2022-10-03T18:57:18.904Z,78
2022-10-03T18:58:58.667Z,78
2022-10-03T19:00:38.428Z,78
2022-10-03T19:02:18.210Z,78
2022-10-03T19:03:58.018Z,78
2022-10-03T19:05:37.773Z,78
2022-10-03T19:07:17.502Z,78
2022-10-03T19:08:57.258Z,78
2022-10-03T19:10:37.063Z,78
2022-10-03T19:12:16.797Z,78
2022-10-03T19:13:56.570Z,78
2022-10-03T19:15:36.322Z,78
2022-10-03T19:17:16.100Z,78
2022-10-03T19:18:55.861Z,77
2022-10-03T19:20:35.622Z,77
2022-10-03T19:22:15.483Z,78
2022-10-03T19:23:55.205Z,77
2022-10-03T19:25:34.939Z,78
2022-10-03T19:27:14.735Z,77
2022-10-03T19:28:54.479Z,77
2022-10-03T19:30:34.240Z,77
2022-10-03T19:32:14.051Z,77
2022-10-03T19:33:53.783Z,77
2022-10-03T19:35:33.553Z,77
2022-10-03T19:37:13.327Z,77
2022-10-03T19:38:53.113Z,77
2022-10-03T19:40:32.849Z,77
2022-10-03T19:42:12.681Z,77
2022-10-03T19:43:52.394Z,77
2022-10-03T19:45:32.150Z,77
2022-10-03T19:47:12.037Z,77
2022-10-03T19:48:51.734Z,77
2022-10-03T19:50:31.481Z,77
2022-10-03T19:52:11.262Z,77
2022-10-03T19:53:50.996Z,77
2022-10-03T19:55:30.768Z,77
2022-10-03T19:57:10.601Z,77
2022-10-03T19:58:50.298Z,77
2022-10-03T20:00:30.049Z,77
2022-10-03T20:02:09.813Z,77
2022-10-03T20:03:49.580Z,77
2022-10-03T20:05:29.341Z,77
2022-10-03T20:07:09.116Z,77
2022-10-03T20:08:48.904Z,77
2022-10-03T20:10:28.679Z,77
2022-10-03T20:12:08.424Z,77
2022-10-03T20:13:48.211Z,76
2022-10-03T20:15:28.013Z,76
2022-10-03T20:17:07.735Z,76
2022-10-03T20:18:47.572Z,76
2022-10-03T20:20:27.258Z,76
2022-10-03T20:22:07.038Z,76
2022-10-03T20:23:46.797Z,76
2022-10-03T20:25:26.565Z,76
2022-10-03T20:27:06.388Z,76
2022-10-03T20:28:46.136Z,76
2022-10-03T20:30:25.900Z,76
2022-10-03T20:32:05.655Z,76
2022-10-03T20:33:45.401Z,76
2022-10-03T20:35:25.164Z,76
2022-10-03T20:37:05.075Z,76
2022-10-03T20:38:44.746Z,76
2022-10-03T20:40:24.473Z,76
2022-10-03T20:42:04.316Z,76
2022-10-03T20:43:44.052Z,76
2022-10-03T20:45:23.768Z,76
2022-10-03T20:47:03.530Z,76
2022-10-03T20:48:43.381Z,76
2022-10-03T20:52:02.915Z,76
2022-10-03T20:53:42.695Z,76
2022-10-03T20:55:22.376Z,76
2022-10-03T20:57:02.203Z,76
2022-10-03T20:58:41.972Z,76
2022-10-03T21:00:21.732Z,76
2022-10-03T21:02:01.459Z,76
2022-10-03T21:03:41.221Z,75
2022-10-03T21:05:20.974Z,75
2022-10-03T21:07:00.909Z,76
2022-10-03T21:08:40.507Z,75
2022-10-03T21:10:20.359Z,75
2022-10-03T21:12:00.121Z,75
2022-10-03T21:13:39.874Z,75
2022-10-03T21:15:19.601Z,75
2022-10-03T21:16:59.404Z,75
2022-10-03T21:18:39.226Z,75
2022-10-03T21:20:18.990Z,75
2022-10-03T21:21:58.747Z,75
2022-10-03T21:23:38.476Z,75
2022-10-03T21:25:18.209Z,75
2022-10-03T21:26:57.970Z,75
2022-10-03T21:28:37.722Z,75
2022-10-03T21:30:17.518Z,75
2022-10-03T21:31:57.266Z,75
2022-10-03T21:33:37.079Z,75
2022-10-03T21:35:16.814Z,75
2022-10-03T21:36:56.681Z,75
2022-10-03T21:38:36.376Z,75
2022-10-03T21:40:16.094Z,75
2022-10-03T21:41:55.863Z,75
2022-10-03T21:43:35.638Z,75
2022-10-03T21:45:15.423Z,75
2022-10-03T21:46:55.215Z,75
2022-10-03T21:48:34.940Z,75
2022-10-03T21:50:14.716Z,75
2022-10-03T21:51:54.573Z,75
2022-10-03T21:53:34.343Z,75
2022-10-03T21:55:14.012Z,75
2022-10-03T21:56:53.793Z,74
2022-10-03T21:58:33.617Z,75
2022-10-03T22:00:13.295Z,75
2022-10-03T22:01:53.064Z,75
2022-10-03T22:05:12.653Z,75
2022-10-03T22:06:52.405Z,74
2022-10-03T22:08:32.148Z,75
2022-10-03T22:10:11.964Z,75
2022-10-03T22:11:51.716Z,75
2022-10-03T22:13:31.465Z,74
2022-10-03T22:15:11.273Z,74
2022-10-03T22:16:50.971Z,74
2022-10-03T22:18:30.760Z,74
2022-10-03T22:20:10.506Z,74
2022-10-03T22:21:50.305Z,74
2022-10-03T22:23:30.061Z,74
2022-10-03T22:25:09.846Z,74
2022-10-03T22:26:49.631Z,74
2022-10-03T22:28:29.359Z,74
2022-10-03T22:30:09.127Z,74
2022-10-03T22:31:48.884Z,74
2022-10-03T22:33:28.679Z,74
2022-10-03T22:35:08.408Z,74
2022-10-03T22:36:48.203Z,74
2022-10-03T22:38:27.968Z,74
2022-10-03T22:40:07.713Z,74
2022-10-03T22:43:27.326Z,74
2022-10-03T22:45:07.066Z,74
2022-10-03T22:46:46.796Z,74
2022-10-03T22:48:26.564Z,74
2022-10-03T22:50:06.329Z,74
2022-10-03T22:51:46.099Z,74
2022-10-03T22:53:25.863Z,74
2022-10-03T22:55:05.619Z,74
2022-10-03T22:56:45.520Z,74
2022-10-03T22:58:25.192Z,74
2022-10-03T23:00:04.929Z,73
2022-10-03T23:01:44.692Z,74
2022-10-03T23:03:24.515Z,73
2022-10-03T23:05:04.226Z,73
2022-10-03T23:06:44.118Z,73
2022-10-03T23:08:23.778Z,73
2022-10-03T23:10:03.553Z,73
2022-10-03T23:11:43.345Z,73
2022-10-03T23:13:23.140Z,73
2022-10-03T23:15:02.840Z,73
2022-10-03T23:16:42.679Z,73
2022-10-03T23:18:22.418Z,73
2022-10-03T23:20:02.186Z,73
2022-10-03T23:21:41.962Z,73
2022-10-03T23:23:21.733Z,73
2022-10-03T23:25:01.461Z,73
2022-10-03T23:26:41.208Z,73
2022-10-03T23:28:21.010Z,72
2022-10-03T23:30:00.761Z,73
2022-10-03T23:31:40.511Z,73
2022-10-03T23:33:20.321Z,73
2022-10-03T23:35:00.042Z,73
2022-10-03T23:36:39.843Z,73
2022-10-03T23:39:59.372Z,72
2022-10-03T23:41:39.108Z,72
2022-10-03T23:43:18.947Z,72
2022-10-03T23:44:58.680Z,72
2022-10-03T23:46:38.442Z,72
2022-10-03T23:48:18.211Z,72
2022-10-03T23:49:57.954Z,72
2022-10-03T23:51:37.727Z,72
2022-10-03T23:53:17.500Z,72
2022-10-03T23:54:57.249Z,72